Boulder City, Nevada Weather observations

Data are for observation ending at time listed.
 Day   Time    Ave.   Ave.  Ave.  Vector   Max.   Stn.    Total    Solar   Ave.  
  of    of     Air    Rel.  Wind   Wind    Wind   Baro.  Precip.   Rad.    Soil  
Year   Day     Temp.  Hum.  Speed  Dir.    Gust   Pres.                    Temp. 
2026   (PST)    F      %     mph   deg.    mph     mb.     in.     W/m2     F   
------------------------------------------------------------------------------
 242   10:40   96.7    12    8.2   207     17.5   931.1    0.00     447    95.9
 242   10:50   97.4    12    9.0   201     15.1   931.0    0.00     949    96.4
 242   11:00   97.7    12   11.5   217     18.9   930.9    0.00     961    96.7
 242   11:10   97.1    13   11.1   214     22.4   930.7    0.00     618    96.9
 242   11:20   98.3    12   10.2   210     16.6   930.6    0.00     953    97.2
 242   11:30   99.5    12    8.7   220     15.1   930.4    0.00     858    97.4
 242   11:40   99.6    12   10.7   198     20.0   930.2    0.00     794    97.8
 242   11:50  100.1    12   10.5   206     24.4   930.2    0.00     780    97.8
 242   12:00   99.6    12    8.4   195     20.6   930.1    0.00     900    98.1
 242   12:10   99.7    12    9.3   211     15.6   930.2    0.00     683    98.3
 242   12:20   99.8    12   10.9   204     21.0   930.1    0.00     715    98.6
 242   12:30  100.1    12    7.5   210     15.9   930.0    0.00     714    98.9
 242   12:40  100.7    12    8.9   184     16.7   930.0    0.00     603    99.2
 242   12:50  100.0    12   10.1   192     18.3   930.0    0.00     590    99.2
 242   13:00  100.0    12    7.3   176     13.7   929.9    0.00     598    99.6
 242   13:10  100.1    12    6.6   204     15.3   929.7    0.00     556    99.8
 242   13:20  100.7    12    9.1   217     19.9   929.6    0.00     640    100.0
 242   13:30  100.3    12    8.5   224     15.4   929.4    0.00     661    100.2
 242   13:40   99.9    12    7.3   215     14.2   929.4    0.00     593    100.5
 242   13:50  100.1    12    8.2   232     16.1   929.2    0.00     555    100.4
 242   14:00   99.8    12    6.8   229     14.2   929.1    0.00     499    100.8
 242   14:10  100.1    12    6.3   237     12.2   928.9    0.00     593    101.0
 242   14:20  100.7    12    9.0   226     15.9   928.9    0.00     619    101.2
 242   14:30  100.5    12    9.1   206     16.4   928.7    0.00     582    101.2
 242   14:40  101.1    11    9.1   191     16.7   928.7    0.00     527    101.4
 242   14:50  100.1    12    6.9   227     13.9   928.6    0.00     542    101.6
 242   15:00  100.4    12    6.5   235     14.6   928.5    0.00     470    101.7
 242   15:10  100.7    12    6.9   233     13.2   928.4    0.00     425    101.7
 242   15:20  100.1    12    8.1   228     14.3   928.3    0.00     438    101.8
 242   15:30  100.4    12    5.1   244     12.7   928.3    0.00     392    101.9
 242   15:40  100.1    12    9.7   228     15.9   928.3    0.00     384    102.0
 242   15:50   99.5    12    8.1   230     15.5   928.2    0.00     326    102.2
 242   16:00   99.6    12    7.2   229     15.4   928.1    0.00     317    102.2
 242   16:10   99.8    11    6.2   225     11.5   928.0    0.00     299    102.1
 242   16:20   99.4    11    6.2   227     11.9   927.9    0.00     257    102.2
 242   16:30   99.6    11    6.7   231     12.5   927.8    0.00     269    102.3
 242   16:40   99.2    11    5.0   250     11.1   927.8    0.00     241    102.3
 242   16:50   98.9    12    5.2   257     12.6   927.8    0.00     223    102.3
 242   17:00   98.7    12    4.5   247      9.9   927.7    0.00     178    102.2
 242   17:10   98.3    12    4.9   251     12.5   927.6    0.00     151    102.2
 242   17:20   97.8    12    5.2   240     10.6   927.6    0.00     113    102.1
 242   17:30   97.2    12    5.9   236     10.8   927.5    0.00      85    102.3
 242   17:40   96.7    12    3.1   230      6.5   927.4    0.00      46    102.1
 242   17:50   96.5    12    4.8   229      8.8   927.3    0.00      24    102.0
 242   18:00   96.3    12    3.8   217      8.0   927.3    0.00      15    102.0
 242   18:10   95.9    12    2.8   225      6.0   927.3    0.00       6    101.9
 242   18:20   95.2    13    2.4   230      3.7   927.2    0.00       3    101.8
 242   18:30   94.7    13    3.0   235      6.0   927.2    0.00       1    101.8
 242   18:40   94.1    13    2.2   227      3.9   927.2    0.00       0    101.8
 242   18:50   93.7    13    2.8   238      5.6   927.3    0.00       0    101.6
 242   19:00   93.7    13    2.9   246      5.1   927.4    0.00       0    101.7
 242   19:10   93.2    13    2.0   253      4.2   927.5    0.00       0    101.4
 242   19:20   92.3    13    1.7   243      4.0   927.6    0.00       0    101.4
 242   19:30   91.5    14    1.7   245      2.7   927.8    0.00       0    101.2
 242   19:40   90.9    14    1.8   235      2.8   927.9    0.00       0    101.1
 242   19:50   90.5    14    2.2   214      2.9   928.0    0.00       0    101.0
 242   20:00   90.2    15    2.8   219      3.9   928.0    0.00       0    100.9
 242   20:10   89.9    15    2.9   239      3.9   928.0    0.00       0    100.7
 242   20:20   89.3    15    2.4   252      3.9   928.0    0.00       0    100.6
 242   20:30   88.9    15    2.3   256      4.6   928.0    0.00       0    100.4
 242   20:40   88.5    16    2.7   223      4.2   928.1    0.00       0    100.4
 242   20:50   88.2    16    2.9   215      3.7   928.1    0.00       0    100.2
 242   21:00   87.8    16    2.8   219      3.9   928.1    0.00       0    100.1
 242   21:10   87.8    16    3.1   171      8.1   928.3    0.00       0    100.0
 242   21:20   90.0    15    2.8   195      7.7   928.4    0.00       0    99.8
 242   21:30   90.1    16    3.3   215      5.7   928.4    0.00       0    99.7
 242   21:40   89.0    16    4.7   235      8.0   928.4    0.00       0    99.6
 242   21:50   88.4    18    5.4   234      8.1   928.4    0.00       0    99.4
 242   22:00   87.6    24    4.5   217      7.7   928.4    0.00       0    99.2
 242   22:10   86.8    29    4.7   233      7.8   928.2    0.00       0    99.1
 242   22:20   86.4    33    5.6   231      8.4   928.2    0.00       0    98.9
 242   22:30   86.1    34    4.7   222      7.0   928.1    0.00       0    98.9
 242   22:40   86.0    34    3.4   194      6.4   928.2    0.00       0    98.7
 242   22:50   85.6    35    4.3   225      7.3   928.2    0.00       0    98.7
 242   23:00   85.4    36    6.0   229      8.9   928.3    0.00       0    98.4
 242   23:10   85.7    35    5.1   217      8.6   928.2    0.00       0    98.4
 242   23:20   85.4    35    5.5   234      9.1   928.2    0.00       0    98.2
 242   23:30   85.5    35    5.3   232      8.7   928.3    0.00       0    98.1
 242   23:40   85.8    34    6.1   229     11.3   928.3    0.00       0    97.9
 242   23:50   86.5    33    5.8   222      9.6   928.4    0.00       0    97.9
 243    0:00   86.4    34    5.5   226      9.4   928.4    0.00       0    97.8
 243    0:10   86.0    34    4.7   205      7.7   928.4    0.00       0    97.6
 243    0:20   85.7    35    4.8   215      7.1   928.3    0.00       0    97.6
 243    0:30   85.4    35    4.7   210      7.9   928.3    0.00       0    97.4
 243    0:40   85.6    34    4.2   199      7.7   928.2    0.00       0    97.3
 243    0:50   85.3    34    3.7   209      6.1   928.2    0.00       0    97.3
 243    1:00   85.2    34    5.2   218      8.0   928.1    0.00       0    97.1
 243    1:10   84.6    34    4.5   228      7.1   928.1    0.00       0    97.0
 243    1:20   83.8    35    3.4   215      5.6   928.1    0.00       0    96.8
 243    1:30   83.3    35    2.8   210      4.5   928.1    0.00       0    96.8
 243    1:40   83.0    34    2.8   206      4.4   928.1    0.00       0    96.7
 243    1:50   83.3    33    2.9   208      5.0   928.1    0.00       0    96.6
 243    2:00   83.0    33    2.1   193      2.9   928.1    0.00       0    96.5
 243    2:10   82.5    33    2.0   180      5.8   928.2    0.00       0    96.4
 243    2:20   83.0    37    4.0   176      8.0   928.3    0.00       0    96.3
 243    2:30   83.3    39    4.4   182      9.5   928.3    0.00       0    96.2
 243    2:40   83.8    39    5.1   172     10.8   928.3    0.00       0    96.0
 243    2:50   83.6    39    4.2   193      7.7   928.3    0.00       0    95.9
 243    3:00   82.7    40    3.5   240      6.1   928.4    0.00       0    95.9
 243    3:10   82.8    41    4.6   200     11.4   928.4    0.00       0    95.6
 243    3:20   83.1    41    4.7   191      7.5   928.5    0.00       0    95.5
 243    3:30   82.7    41    4.7   201      8.3   928.5    0.00       0    95.5
 243    3:40   82.7    41    4.3   184      7.2   928.5    0.00       0    95.4
 243    3:50   82.4    41    4.7   183      7.5   928.5    0.00       0    95.4
 243    4:00   82.1    41    3.8   179      7.0   928.5    0.00       0    95.2
 243    4:10   81.8    42    3.8   199      6.2   928.5    0.00       0    95.1
 243    4:20   81.7    42    3.7   206      6.1   928.5    0.00       0    95.1
 243    4:30   81.3    43    3.5   212      6.0   928.5    0.00       0    94.9
 243    4:40   80.8    44    3.6   211      5.0   928.5    0.00       0    94.8
 243    4:50   80.2    43    3.5   240      5.3   928.5    0.00       0    94.6
 243    5:00   80.3    41    4.0   248      6.7   928.5    0.00       0    94.6
 243    5:10   80.5    41    5.7   237     10.2   928.5    0.00       2    94.5
 243    5:20   81.2    43    7.2   201     14.3   928.6    0.00       5    94.5
 243    5:30   82.1    42    8.7   190     17.8   928.8    0.00      17    94.4
 243    5:40   82.3    42    6.0   197     11.0   929.0    0.00      42    94.3
 243    5:50   82.3    42    5.2   210      8.6   929.2    0.00      73    94.2
 243    6:00   82.5    40    4.3   220      8.8   929.5    0.00     102    94.0
 243    6:10   82.9    40    3.5   201      6.0   929.7    0.00     136    94.0
 243    6:20   83.7    39    2.9   173      6.0   930.0    0.00     170    93.9
 243    6:30   84.4    38    2.5   182      5.6   930.2    0.00     203    93.9
 243    6:40   84.5    38    2.7   219      4.8   930.4    0.00     236    93.7
 243    6:50   85.0    37    2.6   206      5.6   930.5    0.00     270    93.6
 243    7:00   85.8    38    4.1   154      8.3   930.7    0.00     306    93.5
 243    7:10   86.1    37    5.3   179     10.1   930.7    0.00     329    93.5
 243    7:20   86.5    36    4.6   174      9.4   930.9    0.00     359    93.5
 243    7:30   87.2    35    5.0   159     11.1   931.0    0.00     403    93.4
 243    7:40   87.4    34    4.1   156     12.7   931.1    0.00     436    93.3
 243    7:50   87.9    34    4.8   144     14.2   931.2    0.00     472    93.3
 243    8:00   87.7    34    6.5   152     14.5   931.2    0.00     510    93.3
 243    8:10   88.2    32    8.6   154     16.1   931.2    0.00     557    93.4
 243    8:20   88.4    31    8.9   145     18.4   931.2    0.00     594    93.3
 243    8:30   88.6    31    8.7   154     19.9   931.3    0.00     596    93.3
 243    8:40   88.7    31    7.0   146     16.4   931.3    0.00     610    93.5
 243    8:50   89.4    31    7.6   132     16.1   931.4    0.00     633    93.5
 243    9:00   89.4    29    9.0   152     19.4   931.5    0.00     658    93.6
 243    9:10   89.9    29    6.9   136     13.1   931.6    0.00     588    93.7
 243    9:20   90.7    29    6.3   145     13.6   931.6    0.00     694    93.8
 243    9:30   89.9    30    8.8   149     15.4   931.6    0.00     436    94.0
 243    9:40   89.9    29    7.3   156     17.0   931.6    0.00     318    94.1
 243    9:50   90.8    28    7.1   159     12.7   931.5    0.00      93    94.2
 243   10:00   91.3    27    8.6   140     17.9   931.4    0.00     351    94.3
 243   10:10   91.5    26    7.6   141     15.9   931.3    0.00     637    94.5
 243   10:20   92.5    25    9.6   153     19.5   931.4    0.00     697    94.7
 243   10:30   92.1    25    9.2   154     16.2   931.3    0.00     632    95.0

Return to Boulder City, Nevada graphs page.


Western Regional Climate Center,wrcc@dri.edu